Time;durP1;ratioP1;P1;durP2;ratioP2;P2;SDS_P1;SDS_P2;PMS_P1;PMS_P2;Temp;Humidity;BMP_temperature;BMP_pressure;BME280_temperature;BME280_humidity;BME280_pressure;Samples;Min_cycle;Max_cycle;Signal;HPM_P1;HPM_P2
2022/10/02 00:00:01;;;;;;;2.40;0.98;;;16.90;99.90;17.00;100303.00;;;;342733;28;85351;-90
2022/10/02 00:00:15;;;;;;;2.78;1.00;;;16.90;99.90;17.00;100298.00;;;;340199;28;83431;-91
2022/10/02 00:00:27;;;;;;;3.30;1.30;;;16.90;99.90;17.00;100299.00;;;;341081;28;84574;-91
2022/10/02 00:00:39;;;;;;;2.85;1.25;;;16.90;99.90;17.00;100298.00;;;;341255;28;82839;-91
2022/10/02 00:00:51;;;;;;;2.75;1.27;;;16.90;99.90;16.90;100298.00;;;;342669;28;87856;-91
2022/10/02 00:01:15;;;;;;;2.53;1.05;;;16.90;99.90;16.80;100296.00;;;;345245;28;83505;-91
2022/10/02 00:02:01;;;;;;;3.35;1.05;;;16.90;99.90;16.90;100296.00;;;;342533;28;87059;-91
2022/10/02 00:02:15;;;;;;;2.72;1.13;;;16.90;99.90;16.70;100305.00;;;;341037;28;83385;-90
2022/10/02 00:02:47;;;;;;;2.25;1.05;;;16.90;99.90;16.70;100295.00;;;;341188;28;87309;-90
2022/10/02 00:03:05;;;;;;;2.33;1.00;;;16.90;99.90;16.60;100302.00;;;;342732;28;83474;-90
2022/10/02 00:03:21;;;;;;;3.13;1.17;;;16.90;99.90;16.70;100301.00;;;;344189;28;85112;-91
2022/10/02 00:03:34;;;;;;;3.08;1.23;;;16.90;99.90;16.60;100308.00;;;;341104;28;83580;-91
2022/10/02 00:03:46;;;;;;;1.63;0.82;;;16.90;99.90;16.60;100307.00;;;;341517;28;85060;-91
2022/10/02 00:03:59;;;;;;;2.25;0.90;;;16.90;99.90;16.60;100299.00;;;;341506;28;82365;-90
2022/10/02 00:04:17;;;;;;;2.20;0.80;;;16.90;99.90;16.50;100305.00;;;;343964;28;84729;-91
2022/10/02 00:04:39;;;;;;;1.75;0.80;;;16.90;99.90;16.50;100309.00;;;;344172;28;82387;-90
2022/10/02 00:04:58;;;;;;;2.10;0.90;;;16.80;99.90;16.60;100308.00;;;;342849;28;86078;-91
2022/10/02 00:05:13;;;;;;;1.98;0.73;;;16.80;99.90;16.50;100312.00;;;;341202;28;83565;-91
2022/10/02 00:05:54;;;;;;;2.10;1.08;;;16.80;99.90;16.40;100313.00;;;;341574;28;85599;-91
2022/10/02 00:06:16;;;;;;;2.28;0.88;;;16.80;99.90;16.60;100314.00;;;;342277;28;83510;-90
2022/10/02 00:06:40;;;;;;;2.78;1.17;;;16.80;99.90;16.50;100316.00;;;;341531;28;85368;-91
2022/10/02 00:06:53;;;;;;;2.28;1.10;;;16.70;99.90;16.60;100311.00;;;;341275;28;83370;-91
2022/10/02 00:07:08;;;;;;;2.60;0.90;;;16.80;99.90;16.70;100307.00;;;;342758;28;85083;-90
2022/10/02 00:07:47;;;;;;;2.60;0.90;;;16.80;99.90;16.70;100307.00;;;;341412;28;82482;-91
2022/10/02 00:08:04;;;;;;;2.60;1.20;;;16.70;99.90;16.60;100317.00;;;;342476;28;86824;-91
2022/10/02 00:08:29;;;;;;;2.20;1.00;;;16.70;99.90;16.70;100313.00;;;;341003;28;83554;-90
2022/10/02 00:08:40;;;;;;;4.15;1.10;;;16.70;99.90;16.50;100313.00;;;;341229;28;85440;-90
2022/10/02 00:08:58;;;;;;;3.60;0.98;;;16.70;99.90;16.50;100317.00;;;;341005;28;83016;-91
2022/10/02 00:09:29;;;;;;;2.47;0.90;;;16.70;99.90;16.50;100315.00;;;;339813;28;88999;-90
2022/10/02 00:09:50;;;;;;;1.90;1.10;;;16.80;99.90;16.70;100314.00;;;;338265;28;84026;-91
2022/10/02 00:10:11;;;;;;;2.03;0.90;;;16.70;99.90;16.80;100311.00;;;;338713;28;84101;-91
2022/10/02 00:10:30;;;;;;;3.75;1.00;;;16.80;99.90;16.70;100323.00;;;;337124;28;85939;-90
2022/10/02 00:10:47;;;;;;;3.30;1.27;;;16.80;99.90;16.70;100316.00;;;;340047;28;84184;-90
2022/10/02 00:11:02;;;;;;;2.33;1.15;;;16.80;99.90;16.70;100305.00;;;;340860;28;82569;-91
2022/10/02 00:11:23;;;;;;;2.95;1.40;;;16.80;99.90;16.80;100306.00;;;;340076;28;84452;-91
2022/10/02 00:11:43;;;;;;;4.07;1.33;;;16.80;99.90;16.80;100307.00;;;;342752;28;82390;-91
2022/10/02 00:11:57;;;;;;;3.90;1.20;;;16.80;99.90;16.90;100318.00;;;;340036;28;85410;-90
2022/10/02 00:12:13;;;;;;;2.20;1.20;;;16.80;99.90;16.90;100309.00;;;;341247;28;83388;-90
2022/10/02 00:12:26;;;;;;;2.30;1.00;;;16.80;99.90;16.90;100311.00;;;;339930;28;84215;-90
2022/10/02 00:12:38;;;;;;;2.47;1.00;;;16.80;99.90;16.90;100309.00;;;;339889;28;83762;-91
2022/10/02 00:12:55;;;;;;;2.35;1.08;;;16.80;99.90;16.90;100305.00;;;;343861;28;87313;-91
2022/10/02 00:13:11;;;;;;;2.38;1.20;;;16.80;99.90;16.90;100308.00;;;;339995;28;83142;-91
2022/10/02 00:13:40;;;;;;;2.33;1.15;;;16.80;99.90;16.90;100312.00;;;;338462;28;85931;-91
2022/10/02 00:13:55;;;;;;;2.35;1.25;;;16.90;99.90;17.00;100306.00;;;;339755;28;84106;-91
2022/10/02 00:14:12;;;;;;;2.55;1.30;;;16.90;99.90;16.90;100304.00;;;;342411;28;84308;-90
2022/10/02 00:14:25;;;;;;;4.00;1.30;;;16.90;99.90;16.90;100306.00;;;;342648;28;82472;-91
2022/10/02 00:14:38;;;;;;;3.58;1.15;;;16.90;99.90;16.90;100310.00;;;;339986;28;82889;-91
2022/10/02 00:14:54;;;;;;;1.67;0.90;;;16.90;99.90;16.90;100311.00;;;;339764;28;83399;-90
2022/10/02 00:15:13;;;;;;;2.38;1.02;;;16.90;99.90;17.00;100310.00;;;;338574;28;84892;-90
2022/10/02 00:15:28;;;;;;;3.25;0.95;;;16.90;99.90;17.00;100309.00;;;;341190;28;82658;-90
2022/10/02 00:15:40;;;;;;;3.10;1.10;;;16.90;99.90;17.00;100311.00;;;;339819;28;84642;-91
2022/10/02 00:15:52;;;;;;;2.83;1.10;;;16.90;99.90;16.90;100307.00;;;;341052;28;83522;-91
2022/10/02 00:16:09;;;;;;;2.50;1.17;;;16.90;99.90;16.90;100312.00;;;;342727;28;85855;-91
2022/10/02 00:16:38;;;;;;;2.60;1.10;;;16.90;99.90;16.80;100312.00;;;;342597;28;83444;-91
2022/10/02 00:16:54;;;;;;;2.17;0.90;;;16.90;99.90;16.70;100309.00;;;;340074;28;85031;-91
2022/10/02 00:17:09;;;;;;;1.88;0.70;;;16.90;99.90;16.90;100318.00;;;;342680;28;82446;-91
2022/10/02 00:17:25;;;;;;;2.83;0.90;;;16.90;99.90;16.90;100314.00;;;;341324;28;85484;-91
2022/10/02 00:17:39;;;;;;;2.85;1.17;;;16.90;99.90;16.80;100311.00;;;;340030;28;83442;-90
2022/10/02 00:17:53;;;;;;;2.42;1.20;;;16.90;99.90;16.80;100314.00;;;;342396;28;88250;-91
2022/10/02 00:18:14;;;;;;;2.50;1.08;;;16.90;99.90;16.80;100316.00;;;;341329;28;83339;-91
2022/10/02 00:18:29;;;;;;;2.58;1.10;;;16.90;99.90;16.80;100313.00;;;;342341;28;86684;-91
2022/10/02 00:18:40;;;;;;;2.92;1.20;;;16.90;99.90;16.80;100322.00;;;;342374;28;83524;-91
2022/10/02 00:18:54;;;;;;;2.78;1.20;;;16.90;99.90;16.70;100317.00;;;;342467;28;85763;-91
2022/10/02 00:19:08;;;;;;;2.80;1.50;;;16.90;99.90;16.80;100315.00;;;;341310;28;83426;-91
2022/10/02 00:19:20;;;;;;;2.85;1.60;;;16.90;99.90;16.80;100316.00;;;;341318;28;84256;-91
2022/10/02 00:19:32;;;;;;;2.15;1.00;;;16.90;99.90;16.90;100317.00;;;;341308;28;82490;-91
2022/10/02 00:19:44;;;;;;;1.83;0.98;;;16.90;99.90;16.90;100314.00;;;;341092;28;85693;-91
2022/10/02 00:19:56;;;;;;;2.17;1.00;;;16.90;99.90;16.90;100307.00;;;;342641;28;84685;-91
2022/10/02 00:20:15;;;;;;;2.40;0.98;;;16.90;99.90;16.90;100318.00;;;;339999;28;85860;-91
2022/10/02 00:20:33;;;;;;;2.97;0.95;;;16.90;99.90;17.10;100312.00;;;;340968;28;83794;-91
2022/10/02 00:21:00;;;;;;;4.05;1.30;;;16.90;99.90;17.00;100318.00;;;;339715;28;87782;-90
2022/10/02 00:21:37;;;;;;;3.08;1.50;;;17.00;99.90;17.00;100311.00;;;;339898;28;83443;-91
2022/10/02 00:22:19;;;;;;;3.28;1.27;;;17.00;99.90;16.80;100315.00;;;;339952;28;84888;-91
2022/10/02 00:22:40;;;;;;;4.15;1.00;;;17.00;99.90;16.60;100308.00;;;;341361;28;83645;-90
2022/10/02 00:23:01;;;;;;;3.55;1.10;;;17.00;99.90;16.60;100319.00;;;;341329;28;83619;-91
2022/10/02 00:23:23;;;;;;;2.13;1.30;;;16.90;99.90;16.50;100325.00;;;;342322;28;82696;-90
2022/10/02 00:23:44;;;;;;;3.78;1.30;;;16.90;99.90;16.40;100321.00;;;;341069;28;86646;-91
2022/10/02 00:24:00;;;;;;;3.50;1.20;;;16.80;99.90;16.30;100325.00;;;;341419;28;82412;-90
2022/10/02 00:24:22;;;;;;;2.88;1.20;;;16.80;99.90;16.20;100318.00;;;;341056;28;88400;-91
2022/10/02 00:25:12;;;;;;;1.90;1.30;;;16.70;99.90;16.20;100319.00;;;;344057;28;82462;-91
2022/10/02 00:25:50;;;;;;;2.22;1.08;;;16.60;99.90;16.40;100318.00;;;;342699;28;83784;-90
2022/10/02 00:26:27;;;;;;;2.53;1.35;;;16.50;99.90;16.40;100321.00;;;;341391;28;83361;-90
2022/10/02 00:26:55;;;;;;;2.40;1.20;;;16.50;99.90;16.50;100325.00;;;;341045;28;86680;-91
2022/10/02 00:27:26;;;;;;;2.38;0.82;;;16.60;99.90;16.50;100331.00;;;;340981;28;82696;-91
2022/10/02 00:28:27;;;;;;;1.70;0.70;;;16.60;99.90;16.80;100319.00;;;;339748;28;86576;-90
2022/10/02 00:28:51;;;;;;;3.15;1.45;;;16.60;99.90;16.80;100313.00;;;;339862;28;84473;-91
2022/10/02 00:29:11;;;;;;;3.65;1.15;;;16.60;99.90;16.90;100315.00;;;;341071;28;87343;-90
2022/10/02 00:29:38;;;;;;;2.60;1.23;;;16.70;99.90;16.80;100306.00;;;;342536;28;83884;-91
2022/10/02 00:29:54;;;;;;;3.05;1.50;;;16.70;99.90;16.90;100304.00;;;;342522;28;87969;-90
2022/10/02 00:30:13;;;;;;;4.32;1.25;;;16.70;99.90;16.80;100306.00;;;;339639;28;83967;-91
2022/10/02 00:30:25;;;;;;;2.63;0.98;;;16.70;99.90;16.70;100302.00;;;;342563;28;86693;-91
2022/10/02 00:31:04;;;;;;;2.22;1.00;;;16.70;99.90;16.60;100307.00;;;;339885;28;83497;-91
2022/10/02 00:31:34;;;;;;;2.47;1.00;;;16.70;99.90;16.70;100309.00;;;;336817;28;85480;-91
2022/10/02 00:31:55;;;;;;;2.00;1.13;;;16.70;99.90;16.60;100308.00;;;;337127;28;82957;-90
2022/10/02 00:32:24;;;;;;;2.97;2.00;;;16.70;99.90;16.60;100310.00;;;;338547;28;86060;-91
2022/10/02 00:32:51;;;;;;;2.55;1.23;;;16.70;99.90;16.60;100311.00;;;;337532;28;83970;-91
2022/10/02 00:33:23;;;;;;;3.15;1.27;;;16.60;99.90;16.60;100312.00;;;;338679;28;88011;-91
2022/10/02 00:34:08;;;;;;;2.78;1.30;;;16.60;99.90;16.50;100305.00;;;;337295;28;84536;-90
2022/10/02 00:35:31;;;;;;;2.70;1.35;;;16.60;99.90;16.50;100304.00;;;;340197;28;86661;-91
2022/10/02 00:35:49;;;;;;;3.88;1.17;;;16.60;99.90;16.40;100313.00;;;;337318;28;84295;-90
2022/10/02 00:36:29;;;;;;;3.17;1.38;;;16.60;99.90;16.30;100310.00;;;;336294;29;85996;-91
2022/10/02 00:36:55;;;;;;;3.08;1.52;;;16.50;99.90;16.30;100303.00;;;;336976;28;84338;-90
2022/10/02 00:37:19;;;;;;;3.40;1.27;;;16.50;99.90;16.40;100314.00;;;;335692;28;87053;-91
2022/10/02 00:37:40;;;;;;;2.85;1.30;;;16.50;99.90;16.50;100315.00;;;;338645;28;83307;-91
2022/10/02 00:38:16;;;;;;;2.33;1.30;;;16.50;99.90;16.50;100316.00;;;;338335;28;87019;-91
2022/10/02 00:38:46;;;;;;;2.50;1.17;;;16.50;99.90;16.60;100311.00;;;;338502;28;84554;-91
2022/10/02 00:39:16;;;;;;;3.50;1.90;;;16.50;99.90;16.70;100318.00;;;;339557;28;88008;-91
2022/10/02 00:39:44;;;;;;;3.38;1.60;;;16.60;99.90;16.70;100306.00;;;;335954;29;85709;-91
2022/10/02 00:40:42;;;;;;;2.75;1.27;;;16.50;99.90;16.70;100313.00;;;;337052;28;86610;-91
2022/10/02 00:41:37;;;;;;;2.80;1.00;;;16.60;99.90;16.60;100315.00;;;;336909;28;83031;-91
2022/10/02 00:42:28;;;;;;;2.80;1.45;;;16.60;99.90;16.60;100318.00;;;;336794;28;87065;-91
2022/10/02 00:42:55;;;;;;;3.13;1.17;;;16.70;99.90;16.80;100318.00;;;;338464;28;83525;-91
2022/10/02 00:43:46;;;;;;;3.35;1.55;;;16.70;99.90;16.90;100322.00;;;;336576;28;88044;-91
2022/10/02 00:44:15;;;;;;;2.78;1.20;;;16.70;99.90;16.80;100322.00;;;;337494;28;85258;-90
2022/10/02 00:45:15;;;;;;;1.98;1.10;;;16.80;99.90;16.70;100334.00;;;;337539;28;88046;-91
2022/10/02 00:45:56;;;;;;;2.22;1.30;;;16.80;99.90;16.70;100324.00;;;;334853;29;82789;-91
2022/10/02 00:46:13;;;;;;;3.08;1.23;;;16.80;99.90;16.70;100330.00;;;;338810;28;87551;-91
2022/10/02 00:46:44;;;;;;;2.80;1.00;;;16.70;99.90;16.70;100321.00;;;;337690;28;82511;-90
2022/10/02 00:47:17;;;;;;;2.95;1.23;;;16.70;99.90;16.70;100324.00;;;;337525;28;88350;-90
2022/10/02 00:47:44;;;;;;;2.78;1.02;;;16.70;99.90;16.80;100322.00;;;;336442;28;83559;-91
2022/10/02 00:48:23;;;;;;;2.45;1.05;;;16.70;99.90;16.90;100321.00;;;;338788;28;86470;-90
2022/10/02 00:48:47;;;;;;;2.30;1.02;;;16.80;99.90;16.90;100316.00;;;;337754;28;83462;-90
2022/10/02 00:49:23;;;;;;;2.75;1.10;;;16.80;99.90;16.80;100313.00;;;;336251;28;86692;-90
2022/10/02 00:49:57;;;;;;;3.47;1.27;;;16.80;99.90;16.80;100314.00;;;;336397;28;84839;-90
2022/10/02 00:50:44;;;;;;;2.80;1.10;;;16.80;99.90;16.70;100312.00;;;;337492;28;85744;-91
2022/10/02 00:51:08;;;;;;;2.20;1.23;;;16.80;99.90;16.80;100316.00;;;;334978;29;85058;-91
2022/10/02 00:51:28;;;;;;;2.05;0.95;;;16.70;99.90;16.80;100314.00;;;;334753;29;88061;-91
2022/10/02 00:52:21;;;;;;;2.03;1.10;;;16.80;99.90;16.80;100318.00;;;;334862;29;83741;-90
2022/10/02 00:52:56;;;;;;;2.67;0.95;;;16.70;99.90;16.80;100313.00;;;;336319;28;88230;-91
2022/10/02 00:53:45;;;;;;;3.08;0.90;;;16.80;99.90;16.70;100315.00;;;;336320;28;84002;-91
2022/10/02 00:54:25;;;;;;;3.13;1.50;;;16.80;99.90;16.50;100313.00;;;;334891;29;87040;-90
2022/10/02 00:54:48;;;;;;;2.40;0.80;;;16.70;99.90;16.60;100308.00;;;;337339;28;85179;-89
2022/10/02 00:55:22;;;;;;;4.10;1.10;;;16.70;99.90;16.50;100312.00;;;;337585;28;86882;-91
2022/10/02 00:55:56;;;;;;;2.67;1.08;;;16.60;99.90;16.40;100313.00;;;;337163;28;84009;-90
2022/10/02 00:56:20;;;;;;;3.05;1.10;;;16.70;99.90;16.50;100315.00;;;;337712;28;86728;-91
2022/10/02 00:56:53;;;;;;;2.25;0.98;;;16.60;99.90;16.50;100317.00;;;;336325;28;85442;-90
2022/10/02 00:57:22;;;;;;;1.70;1.00;;;16.70;99.90;16.50;100317.00;;;;337301;28;87515;-91
2022/10/02 00:57:39;;;;;;;4.13;1.27;;;16.70;99.90;16.50;100321.00;;;;336370;28;85112;-90
2022/10/02 00:58:36;;;;;;;4.80;1.50;;;16.60;99.90;16.50;100316.00;;;;338595;28;87004;-91
2022/10/02 00:59:00;;;;;;;3.72;1.13;;;16.60;99.90;16.60;100315.00;;;;335096;29;84017;-90
2022/10/02 00:59:29;;;;;;;3.20;1.33;;;16.70;99.90;16.60;100309.00;;;;335354;28;87734;-91
2022/10/02 00:59:50;;;;;;;2.63;1.48;;;16.70;99.90;16.50;100331.00;;;;336281;28;84607;-90
2022/10/02 01:00:14;;;;;;;2.40;1.10;;;16.70;99.90;16.50;100322.00;;;;338869;28;86490;-91
2022/10/02 01:00:26;;;;;;;1.75;1.05;;;16.70;99.90;16.40;100314.00;;;;333719;29;84915;-91
2022/10/02 01:00:39;;;;;;;2.00;1.13;;;16.70;99.90;16.30;100322.00;;;;336218;28;87532;-90
2022/10/02 01:01:04;;;;;;;2.17;1.00;;;16.60;99.90;16.40;100318.00;;;;334962;29;84184;-91
2022/10/02 01:01:27;;;;;;;3.00;1.00;;;16.60;99.90;16.50;100326.00;;;;334931;29;87647;-91
2022/10/02 01:01:51;;;;;;;2.50;0.73;;;16.60;99.90;16.60;100318.00;;;;336090;28;84933;-90
2022/10/02 01:02:30;;;;;;;2.30;0.85;;;16.60;99.90;16.70;100320.00;;;;333553;29;86899;-90
2022/10/02 01:02:46;;;;;;;3.90;1.20;;;16.60;99.90;16.70;100316.00;;;;334888;29;83610;-90
2022/10/02 01:03:16;;;;;;;4.00;1.45;;;16.60;99.90;16.80;100306.00;;;;334991;29;87866;-91
2022/10/02 01:03:52;;;;;;;2.22;1.10;;;16.60;99.90;16.80;100312.00;;;;337740;28;84067;-90
2022/10/02 01:04:05;;;;;;;2.28;1.00;;;16.70;99.90;16.80;100313.00;;;;336185;28;85686;-91
2022/10/02 01:04:32;;;;;;;2.35;0.95;;;16.70;99.90;16.80;100318.00;;;;335023;29;84959;-90
2022/10/02 01:04:46;;;;;;;2.30;0.88;;;16.70;99.90;16.80;100325.00;;;;337585;28;83775;-91
2022/10/02 01:04:59;;;;;;;1.88;0.90;;;16.70;99.90;16.80;100318.00;;;;336316;28;84088;-91
2022/10/02 01:05:11;;;;;;;1.60;0.90;;;16.70;99.90;16.80;100318.00;;;;336085;28;86451;-90
2022/10/02 01:05:24;;;;;;;1.85;0.77;;;16.70;99.90;16.70;100316.00;;;;335121;29;83624;-91
2022/10/02 01:05:36;;;;;;;1.92;0.80;;;16.70;99.90;16.80;100319.00;;;;337550;28;88112;-90
2022/10/02 01:05:48;;;;;;;1.67;0.85;;;16.70;99.90;16.90;100324.00;;;;336328;28;84360;-91
2022/10/02 01:06:00;;;;;;;1.33;0.80;;;16.80;99.90;16.90;100322.00;;;;337830;28;86004;-91
2022/10/02 01:06:12;;;;;;;1.75;0.82;;;16.80;99.90;17.00;100313.00;;;;334836;29;83646;-90
2022/10/02 01:06:27;;;;;;;2.35;0.95;;;16.80;99.90;17.00;100323.00;;;;333686;29;87046;-90
2022/10/02 01:06:39;;;;;;;2.83;1.15;;;16.80;99.90;16.90;100320.00;;;;336317;28;83597;-90
2022/10/02 01:06:51;;;;;;;2.85;1.08;;;16.80;99.90;16.90;100319.00;;;;335002;29;86793;-90
2022/10/02 01:07:05;;;;;;;2.83;1.00;;;16.80;99.90;16.80;100317.00;;;;337701;28;84523;-91
2022/10/02 01:07:17;;;;;;;2.58;1.02;;;16.80;99.90;16.90;100319.00;;;;336166;28;86993;-90
2022/10/02 01:07:29;;;;;;;2.30;0.98;;;16.80;99.90;16.90;100320.00;;;;336245;28;83577;-91
2022/10/02 01:07:45;;;;;;;2.60;0.90;;;16.80;99.90;16.90;100320.00;;;;337519;28;87058;-90
2022/10/02 01:07:56;;;;;;;2.72;1.00;;;16.80;99.90;16.90;100313.00;;;;334995;29;82807;-91
2022/10/02 01:08:08;;;;;;;2.20;0.82;;;16.80;99.90;16.80;100315.00;;;;337515;28;85825;-91
2022/10/02 01:08:20;;;;;;;1.70;0.80;;;16.80;99.90;16.90;100320.00;;;;334876;29;83384;-90
2022/10/02 01:08:33;;;;;;;1.70;0.73;;;16.80;99.90;16.80;100322.00;;;;334888;29;86843;-91
2022/10/02 01:08:45;;;;;;;1.92;0.85;;;16.80;99.90;16.80;100326.00;;;;337514;28;84484;-91
2022/10/02 01:08:56;;;;;;;5.10;1.00;;;16.80;99.90;16.70;100315.00;;;;336333;28;87766;-91
2022/10/02 01:09:09;;;;;;;5.35;0.93;;;16.80;99.90;16.60;100319.00;;;;337708;28;82566;-90
2022/10/02 01:09:20;;;;;;;4.45;0.85;;;16.80;99.90;16.60;100314.00;;;;336166;28;86344;-90
2022/10/02 01:09:32;;;;;;;2.65;0.77;;;16.80;99.90;16.60;100318.00;;;;337712;28;83612;-90
2022/10/02 01:09:44;;;;;;;2.33;1.02;;;16.80;99.90;16.60;100319.00;;;;337481;28;87693;-91
2022/10/02 01:09:56;;;;;;;1.63;0.95;;;16.70;99.90;16.70;100319.00;;;;336403;28;84694;-91
2022/10/02 01:10:09;;;;;;;1.70;1.00;;;16.70;99.90;16.80;100320.00;;;;335120;29;86774;-90
2022/10/02 01:10:22;;;;;;;1.98;0.82;;;16.70;99.90;16.80;100317.00;;;;334994;29;83401;-90
2022/10/02 01:10:35;;;;;;;2.72;1.00;;;16.70;99.90;16.70;100331.00;;;;340388;28;84935;-90
2022/10/02 01:10:47;;;;;;;3.28;1.13;;;16.70;99.90;16.60;100321.00;;;;339064;28;83547;-90
2022/10/02 01:10:59;;;;;;;3.42;1.00;;;16.70;99.90;16.60;100323.00;;;;339874;28;86411;-91
2022/10/02 01:11:12;;;;;;;2.92;1.00;;;16.70;99.90;16.60;100320.00;;;;340344;28;83476;-91
2022/10/02 01:11:25;;;;;;;2.15;0.98;;;16.70;99.90;16.60;100313.00;;;;340037;28;85516;-91
2022/10/02 01:11:37;;;;;;;2.40;0.95;;;16.60;99.90;16.60;100320.00;;;;340091;28;83860;-91
2022/10/02 01:11:49;;;;;;;2.28;0.93;;;16.60;99.90;16.60;100323.00;;;;339016;28;85166;-91
2022/10/02 01:12:01;;;;;;;2.22;0.90;;;16.60;99.90;16.60;100316.00;;;;340335;28;84582;-91
2022/10/02 01:12:13;;;;;;;1.95;0.98;;;16.60;99.90;16.60;100320.00;;;;341713;28;84922;-91
2022/10/02 01:12:25;;;;;;;2.42;0.85;;;16.60;99.90;16.70;100320.00;;;;337557;28;83607;-91
2022/10/02 01:12:38;;;;;;;2.53;1.00;;;16.60;99.90;16.70;100319.00;;;;341652;28;86716;-91
2022/10/02 01:12:51;;;;;;;2.35;1.20;;;16.60;99.90;16.70;100314.00;;;;338731;28;82523;-91
2022/10/02 01:13:04;;;;;;;2.40;1.15;;;16.60;99.90;16.70;100319.00;;;;342727;28;85939;-90
2022/10/02 01:13:15;;;;;;;2.30;1.17;;;16.60;99.90;16.80;100321.00;;;;338993;28;83613;-91
2022/10/02 01:13:27;;;;;;;2.13;1.00;;;16.60;99.90;16.80;100317.00;;;;340308;28;87527;-91
2022/10/02 01:13:39;;;;;;;2.17;1.10;;;16.70;99.90;16.80;100319.00;;;;338806;28;84847;-91
2022/10/02 01:13:51;;;;;;;2.50;1.20;;;16.70;99.90;16.80;100314.00;;;;338807;28;86369;-91
2022/10/02 01:14:03;;;;;;;2.25;1.20;;;16.70;99.90;16.70;100315.00;;;;338977;28;83445;-91
2022/10/02 01:14:14;;;;;;;2.15;1.00;;;16.70;99.90;16.70;100314.00;;;;341601;28;86983;-91
2022/10/02 01:14:34;;;;;;;1.75;0.80;;;16.70;99.90;16.80;100322.00;;;;341552;28;83527;-90
2022/10/02 01:14:47;;;;;;;1.98;0.85;;;16.70;99.90;16.80;100314.00;;;;340286;28;87752;-91
2022/10/02 01:14:59;;;;;;;2.30;1.08;;;16.70;99.90;16.90;100314.00;;;;343106;28;83600;-91
2022/10/02 01:15:13;;;;;;;2.47;1.10;;;16.70;99.90;16.80;100310.00;;;;340370;28;86398;-91
2022/10/02 01:15:48;;;;;;;2.17;0.98;;;16.70;99.90;16.70;100314.00;;;;339052;28;83433;-91
2022/10/02 01:16:00;;;;;;;3.55;0.75;;;16.70;99.90;16.70;100311.00;;;;336444;28;84094;-90
2022/10/02 01:16:13;;;;;;;3.60;0.80;;;16.70;99.90;16.70;100310.00;;;;340413;28;83667;-91
2022/10/02 01:16:24;;;;;;;3.33;1.05;;;16.70;99.90;16.80;100306.00;;;;340340;28;85014;-91
2022/10/02 01:16:36;;;;;;;3.50;1.20;;;16.70;99.90;16.80;100310.00;;;;340476;28;83105;-91
2022/10/02 01:16:49;;;;;;;2.75;1.20;;;16.70;99.90;16.90;100316.00;;;;341537;28;87242;-91
2022/10/02 01:17:01;;;;;;;2.00;0.93;;;16.80;99.90;16.90;100312.00;;;;336357;28;82548;-91
2022/10/02 01:17:32;;;;;;;1.73;0.90;;;16.80;99.90;16.80;100317.00;;;;341573;28;86336;-91
2022/10/02 01:17:45;;;;;;;4.78;1.17;;;16.80;99.90;16.80;100311.00;;;;340263;28;83769;-90
2022/10/02 01:17:57;;;;;;;3.90;1.30;;;16.70;99.90;16.80;100317.00;;;;344231;28;85486;-90
2022/10/02 01:18:09;;;;;;;2.20;1.00;;;16.80;99.90;16.80;100314.00;;;;339028;28;84157;-91
2022/10/02 01:18:20;;;;;;;2.33;1.15;;;16.80;99.90;16.90;100315.00;;;;340368;28;84218;-90
2022/10/02 01:18:32;;;;;;;2.58;1.00;;;16.80;99.90;16.90;100312.00;;;;341618;28;84191;-90
2022/10/02 01:18:46;;;;;;;2.85;0.82;;;16.80;99.90;16.90;100309.00;;;;341613;28;83420;-90
2022/10/02 01:18:58;;;;;;;2.97;0.65;;;16.80;99.90;16.90;100312.00;;;;339063;28;82715;-91
2022/10/02 01:19:35;;;;;;;2.72;0.80;;;16.80;99.90;16.80;100312.00;;;;340550;28;82808;-91
2022/10/02 01:19:47;;;;;;;2.60;1.08;;;16.80;99.90;16.90;100316.00;;;;340395;28;83664;-91
2022/10/02 01:20:03;;;;;;;1.65;0.85;;;16.80;99.90;16.90;100307.00;;;;343176;28;84418;-91
2022/10/02 01:20:35;;;;;;;2.38;0.70;;;16.80;99.90;16.90;100316.00;;;;342922;28;82574;-90
2022/10/02 01:20:49;;;;;;;2.60;1.00;;;16.80;99.90;16.90;100308.00;;;;338566;28;85765;-91
2022/10/02 01:21:09;;;;;;;1.83;0.90;;;16.80;99.90;16.90;100309.00;;;;340179;28;82619;-91
2022/10/02 01:21:31;;;;;;;1.67;0.85;;;16.80;99.90;17.00;100304.00;;;;340399;28;84994;-90
2022/10/02 01:21:45;;;;;;;2.33;0.90;;;16.80;99.90;17.00;100306.00;;;;340030;28;82588;-90
2022/10/02 01:22:18;;;;;;;2.03;0.88;;;16.90;99.90;16.90;100300.00;;;;342188;28;82776;-91
2022/10/02 01:22:35;;;;;;;1.95;0.90;;;16.90;99.90;17.00;100300.00;;;;343570;28;82429;-90
2022/10/02 01:23:22;;;;;;;2.38;0.88;;;16.90;99.90;16.90;100308.00;;;;343506;28;83821;-90
2022/10/02 01:23:52;;;;;;;2.42;0.82;;;16.90;99.90;16.90;100308.00;;;;339315;28;84338;-90
2022/10/02 01:24:29;;;;;;;2.72;1.08;;;16.90;99.90;16.80;100301.00;;;;340788;28;84914;-90
2022/10/02 01:24:50;;;;;;;2.10;1.00;;;16.80;99.90;16.80;100303.00;;;;342054;28;83431;-90
2022/10/02 01:25:03;;;;;;;1.92;0.90;;;16.80;99.90;16.80;100298.00;;;;341861;28;85647;-91
2022/10/02 01:25:15;;;;;;;1.55;0.80;;;16.80;99.90;16.80;100299.00;;;;336478;28;84929;-90
2022/10/02 01:25:27;;;;;;;2.60;1.05;;;16.80;99.90;16.80;100303.00;;;;342096;28;86946;-91
2022/10/02 01:25:39;;;;;;;3.03;1.00;;;16.80;99.90;16.80;100310.00;;;;336616;28;84517;-91
2022/10/02 01:25:50;;;;;;;2.60;1.10;;;16.80;99.90;16.80;100296.00;;;;343350;28;88459;-90
2022/10/02 01:26:02;;;;;;;4.18;1.17;;;16.80;99.90;16.70;100303.00;;;;338112;28;84984;-90
2022/10/02 01:26:14;;;;;;;3.35;1.02;;;16.80;99.90;16.70;100300.00;;;;339433;28;86464;-91
2022/10/02 01:26:26;;;;;;;2.20;0.73;;;16.80;99.90;16.70;100303.00;;;;339177;28;83595;-90
2022/10/02 01:26:38;;;;;;;2.03;0.80;;;16.80;99.90;16.70;100303.00;;;;338986;28;88202;-91
2022/10/02 01:26:49;;;;;;;2.92;0.85;;;16.80;99.90;16.70;100298.00;;;;339011;28;84534;-91
2022/10/02 01:27:01;;;;;;;2.78;0.80;;;16.80;99.90;16.70;100304.00;;;;338885;28;86552;-90
2022/10/02 01:27:13;;;;;;;2.63;0.88;;;16.80;99.90;16.70;100299.00;;;;337479;28;83675;-90
2022/10/02 01:27:25;;;;;;;2.40;0.85;;;16.80;99.90;16.70;100298.00;;;;341356;28;85320;-90
2022/10/02 01:27:37;;;;;;;2.55;0.93;;;16.80;99.90;16.70;100298.00;;;;340390;28;84304;-90
2022/10/02 01:27:50;;;;;;;2.53;0.90;;;16.80;99.90;16.80;100308.00;;;;340098;28;86570;-91
2022/10/02 01:28:04;;;;;;;2.10;0.90;;;16.80;99.90;16.70;100299.00;;;;340535;28;83463;-91
2022/10/02 01:28:16;;;;;;;1.42;0.70;;;16.80;99.90;16.70;100300.00;;;;340237;28;87959;-91
2022/10/02 01:28:28;;;;;;;1.25;0.63;;;16.80;99.90;16.80;100289.00;;;;339065;28;83442;-91
2022/10/02 01:28:40;;;;;;;1.33;0.70;;;16.80;99.90;16.70;100298.00;;;;338660;28;87006;-90
2022/10/02 01:28:53;;;;;;;1.60;0.70;;;16.80;99.90;16.70;100300.00;;;;342998;28;83443;-90
2022/10/02 01:29:04;;;;;;;1.88;0.80;;;16.80;99.90;16.60;100302.00;;;;340128;28;87397;-90
2022/10/02 01:29:16;;;;;;;2.00;0.88;;;16.80;99.90;16.60;100301.00;;;;341710;28;83651;-90
2022/10/02 01:29:30;;;;;;;2.42;1.10;;;16.70;99.90;16.60;100302.00;;;;340301;28;87914;-90
2022/10/02 01:29:43;;;;;;;2.38;1.20;;;16.70;99.90;16.60;100306.00;;;;340228;28;84905;-90
2022/10/02 01:30:06;;;;;;;1.80;0.85;;;16.70;99.90;16.70;100299.00;;;;338756;28;86760;-90
2022/10/02 01:30:19;;;;;;;1.65;0.90;;;16.70;99.90;16.80;100302.00;;;;344134;28;83773;-90
2022/10/02 01:30:31;;;;;;;2.13;0.77;;;16.70;99.90;16.80;100293.00;;;;340377;28;85688;-90
2022/10/02 01:30:47;;;;;;;2.30;0.70;;;16.70;99.90;16.80;100303.00;;;;342933;28;83572;-91
2022/10/02 01:31:04;;;;;;;2.38;0.80;;;16.80;99.90;16.80;100302.00;;;;341488;28;87694;-90
2022/10/02 01:31:16;;;;;;;2.55;1.00;;;16.80;99.90;16.80;100302.00;;;;341345;28;84138;-92
2022/10/02 01:31:28;;;;;;;2.17;0.90;;;16.80;99.90;16.80;100297.00;;;;341541;28;86858;-91
2022/10/02 01:31:41;;;;;;;1.80;0.80;;;16.80;99.90;16.80;100307.00;;;;340416;28;83354;-90
2022/10/02 01:31:53;;;;;;;1.92;0.80;;;16.80;99.90;16.80;100300.00;;;;343008;28;88237;-91